EVRA/RIX METAR and TAF weather

Enter ICAO airport designator
Station Type Date Time Source
EVRA METAR 2018/04/26 15:20 UTC NOAA

EVRA 261520Z 25008KT 220V300 9999 FEW034 SCT047 11/04 Q1005 NOSIG


Station Type Date Time Source
EVRA Decoded METAR 2018/04/26 15:20 UTC NOAA

Riga International Airport, Latvia (EVRA) 56-55N 023-58E
Apr 26, 2018 - 11:20 AM EDT / 2018.04.26 1520 UTC
Wind: from the WSW (250 degrees) at 9 MPH (8 KT) (direction variable):0
Visibility: greater than 7 mile(s):0
Sky conditions: partly cloudy
Temperature: 51 F (11 C)
Dew Point: 39 F (4 C)
Relative Humidity: 61%
Pressure (altimeter): 29.68 in. Hg (1005 hPa)
ob: EVRA 261520Z 25008KT 220V300 9999 FEW034 SCT047 11/04 Q1005 NOSIG
cycle: 15

Station Type Date Time Source
EVRA TAF 2018/04/26 15:04 UTC NOAA

TAF EVRA 261400Z 2615/2715 26010KT 9999 BKN030
TEMPO 2615/2616 25012G30KT BKN020CB
BECMG 2617/2619 20007KT
TEMPO 2623/2707 3000 BR BKN005
BECMG 2709/2711 27010KT
TEMPO 2711/2715 30020G30KT SCT020CB


Example: see airport list